Time;durP1;ratioP1;P1;durP2;ratioP2;P2;SDS_P1;SDS_P2;PMS_P1;PMS_P2;Temp;Humidity;BMP_temperature;BMP_pressure;BME280_temperature;BME280_humidity;BME280_pressure;Samples;Min_cycle;Max_cycle;Signal;HPM_P1;HPM_P2
2024/01/06 00:00:31;;;;;;;10.20;5.90;;;;;;;;;;5095333;28;20020;-32
2024/01/06 00:02:56;;;;;;;9.75;5.93;;;;;;;;;;5095189;28;20282;-31
2024/01/06 00:05:21;;;;;;;8.52;5.13;;;;;;;;;;5095164;28;20027;-32
2024/01/06 00:07:47;;;;;;;9.27;4.80;;;;;;;;;;5095309;28;20378;-32
2024/01/06 00:10:12;;;;;;;7.63;4.55;;;;;;;;;;5095012;28;20023;-32
2024/01/06 00:12:37;;;;;;;9.13;4.63;;;;;;;;;;5095254;28;20028;-32
2024/01/06 00:15:03;;;;;;;6.05;4.35;;;;;;;;;;5095317;28;20012;-32
2024/01/06 00:17:28;;;;;;;6.35;4.07;;;;;;;;;;5094925;28;20061;-32
2024/01/06 00:19:54;;;;;;;5.70;4.18;;;;;;;;;;5095152;28;20008;-32
2024/01/06 00:22:20;;;;;;;7.68;4.57;;;;;;;;;;5095118;28;20104;-31
2024/01/06 00:24:45;;;;;;;7.20;4.20;;;;;;;;;;5095061;28;20016;-32
2024/01/06 00:27:10;;;;;;;5.63;3.60;;;;;;;;;;5095381;28;20024;-32
2024/01/06 00:29:35;;;;;;;5.25;3.38;;;;;;;;;;5094578;28;20308;-32
2024/01/06 00:32:00;;;;;;;6.10;3.33;;;;;;;;;;5095231;28;20012;-31
2024/01/06 00:34:26;;;;;;;5.30;3.40;;;;;;;;;;5094086;28;20020;-32
2024/01/06 00:36:51;;;;;;;4.80;3.33;;;;;;;;;;5095161;28;20012;-31
2024/01/06 00:39:16;;;;;;;5.78;3.20;;;;;;;;;;5095589;28;20297;-32
2024/01/06 00:41:41;;;;;;;6.13;3.27;;;;;;;;;;5094481;28;20374;-31
2024/01/06 00:44:06;;;;;;;4.27;3.03;;;;;;;;;;5094999;28;20269;-32
2024/01/06 00:46:31;;;;;;;4.43;3.13;;;;;;;;;;5094420;28;20251;-31
2024/01/06 00:48:57;;;;;;;5.10;3.50;;;;;;;;;;5094852;28;20285;-32
2024/01/06 00:51:22;;;;;;;9.03;3.80;;;;;;;;;;5094609;28;20300;-33
2024/01/06 00:53:47;;;;;;;8.07;4.07;;;;;;;;;;5094595;28;20273;-32
2024/01/06 00:56:12;;;;;;;9.05;4.22;;;;;;;;;;5094428;28;20446;-32
2024/01/06 00:58:38;;;;;;;7.22;4.30;;;;;;;;;;5094255;28;20505;-32
2024/01/06 01:01:03;;;;;;;6.50;4.40;;;;;;;;;;5094413;28;20026;-31
2024/01/06 01:03:28;;;;;;;5.87;3.73;;;;;;;;;;5093922;28;20091;-33
2024/01/06 01:05:53;;;;;;;5.90;4.30;;;;;;;;;;5094033;28;20262;-31
2024/01/06 01:08:18;;;;;;;9.15;4.72;;;;;;;;;;5094223;28;20274;-31
2024/01/06 01:10:45;;;;;;;7.47;4.78;;;;;;;;;;5094279;28;20020;-31
2024/01/06 01:13:10;;;;;;;7.15;4.88;;;;;;;;;;5093812;28;20073;-32
2024/01/06 01:15:35;;;;;;;9.30;5.27;;;;;;;;;;5094443;28;20016;-32
2024/01/06 01:18:00;;;;;;;9.97;4.77;;;;;;;;;;5094673;28;20563;-31
2024/01/06 01:20:25;;;;;;;10.90;5.10;;;;;;;;;;5093898;28;20269;-32
2024/01/06 01:22:51;;;;;;;8.60;5.67;;;;;;;;;;5093814;28;20658;-31
2024/01/06 01:25:16;;;;;;;8.33;5.67;;;;;;;;;;5094093;28;20269;-32
2024/01/06 01:27:41;;;;;;;10.40;5.60;;;;;;;;;;5093713;28;20725;-32
2024/01/06 01:30:07;;;;;;;7.50;5.60;;;;;;;;;;5094267;28;20252;-32
2024/01/06 01:32:32;;;;;;;10.00;5.50;;;;;;;;;;5093563;28;20254;-32
2024/01/06 01:34:57;;;;;;;8.80;5.10;;;;;;;;;;5094190;28;20020;-32
2024/01/06 01:37:22;;;;;;;8.63;4.70;;;;;;;;;;5093549;28;20471;-31
2024/01/06 01:39:47;;;;;;;8.50;4.63;;;;;;;;;;5093617;28;20262;-31
2024/01/06 01:42:12;;;;;;;5.93;4.47;;;;;;;;;;5093601;28;20016;-31
2024/01/06 01:44:38;;;;;;;5.60;4.28;;;;;;;;;;5093081;28;20286;-31
2024/01/06 01:47:04;;;;;;;6.50;4.20;;;;;;;;;;5093593;28;20024;-32
2024/01/06 01:49:29;;;;;;;5.25;3.60;;;;;;;;;;5093287;28;20081;-32
2024/01/06 01:51:55;;;;;;;7.10;3.80;;;;;;;;;;5093734;28;20016;-31
2024/01/06 01:54:20;;;;;;;8.15;3.80;;;;;;;;;;5093437;28;20255;-32
2024/01/06 01:56:45;;;;;;;5.70;3.70;;;;;;;;;;5093443;28;20416;-32
2024/01/06 01:59:11;;;;;;;4.97;3.45;;;;;;;;;;5093929;28;20250;-32
2024/01/06 02:01:37;;;;;;;6.20;3.53;;;;;;;;;;5093146;28;20177;-31
2024/01/06 02:04:02;;;;;;;6.53;3.95;;;;;;;;;;5093590;28;20044;-32
2024/01/06 02:06:27;;;;;;;6.28;3.50;;;;;;;;;;5093569;28;20031;-31
2024/01/06 02:08:53;;;;;;;8.60;3.83;;;;;;;;;;5093302;28;20023;-31
2024/01/06 02:11:18;;;;;;;7.55;4.20;;;;;;;;;;5093740;28;20269;-32
2024/01/06 02:13:43;;;;;;;6.17;3.87;;;;;;;;;;5093771;28;20019;-32
2024/01/06 02:16:09;;;;;;;6.78;4.03;;;;;;;;;;5093183;28;20819;-31
2024/01/06 02:18:34;;;;;;;8.68;4.57;;;;;;;;;;5075501;28;20333;-31
2024/01/06 02:21:00;;;;;;;20.23;4.00;;;;;;;;;;5093735;28;20036;-31
2024/01/06 02:23:28;;;;;;;6.13;4.00;;;;;;;;;;5093455;28;20605;-31
2024/01/06 02:25:54;;;;;;;7.57;3.85;;;;;;;;;;5093096;28;20383;-32
2024/01/06 02:28:19;;;;;;;8.77;4.20;;;;;;;;;;5093271;28;20016;-32
2024/01/06 02:30:45;;;;;;;7.72;4.05;;;;;;;;;;5093056;28;20378;-32
2024/01/06 02:33:10;;;;;;;6.32;4.57;;;;;;;;;;5092974;28;20017;-31
2024/01/06 02:35:35;;;;;;;6.07;4.00;;;;;;;;;;5093071;28;20032;-33
2024/01/06 02:38:01;;;;;;;8.32;4.25;;;;;;;;;;5093282;28;20312;-32
2024/01/06 02:40:26;;;;;;;7.50;4.20;;;;;;;;;;5093211;28;20024;-31
2024/01/06 02:42:51;;;;;;;6.35;4.00;;;;;;;;;;5093007;28;20023;-31
2024/01/06 02:45:16;;;;;;;6.10;4.17;;;;;;;;;;5093031;28;20020;-31
2024/01/06 02:47:41;;;;;;;5.80;4.20;;;;;;;;;;5093485;28;20329;-32
2024/01/06 02:50:07;;;;;;;6.10;3.83;;;;;;;;;;5092758;28;20355;-32
2024/01/06 02:52:32;;;;;;;6.57;3.97;;;;;;;;;;5092843;28;20357;-32
2024/01/06 02:54:57;;;;;;;7.63;4.40;;;;;;;;;;5093416;28;20020;-32
2024/01/06 02:57:22;;;;;;;10.60;4.18;;;;;;;;;;5095020;28;20012;-32
2024/01/06 02:59:48;;;;;;;6.63;4.23;;;;;;;;;;5096514;28;20398;-31
2024/01/06 03:02:13;;;;;;;6.87;4.03;;;;;;;;;;5096577;28;20294;-31
2024/01/06 03:04:38;;;;;;;7.93;4.23;;;;;;;;;;5096358;28;20258;-32
2024/01/06 03:07:03;;;;;;;8.27;4.82;;;;;;;;;;5096416;28;20304;-32
2024/01/06 03:09:28;;;;;;;6.82;4.30;;;;;;;;;;5096237;28;20024;-31
2024/01/06 03:11:54;;;;;;;9.70;4.70;;;;;;;;;;5096278;28;20020;-32
2024/01/06 03:14:19;;;;;;;11.63;4.90;;;;;;;;;;5096510;28;20353;-31
2024/01/06 03:16:44;;;;;;;8.95;5.03;;;;;;;;;;5096153;28;20467;-31
2024/01/06 03:19:09;;;;;;;9.00;4.93;;;;;;;;;;5096654;28;20028;-32
2024/01/06 03:21:34;;;;;;;8.70;4.93;;;;;;;;;;5096049;28;20744;-31
2024/01/06 03:23:59;;;;;;;6.95;4.68;;;;;;;;;;5095987;28;20258;-32
2024/01/06 03:26:25;;;;;;;8.68;5.20;;;;;;;;;;5096606;28;20073;-32
2024/01/06 03:28:50;;;;;;;9.77;5.23;;;;;;;;;;5096339;28;20020;-31
2024/01/06 03:31:15;;;;;;;8.77;4.82;;;;;;;;;;5096083;28;20338;-32
2024/01/06 03:33:40;;;;;;;8.32;5.10;;;;;;;;;;5095992;28;20414;-32
2024/01/06 03:36:06;;;;;;;7.28;5.05;;;;;;;;;;5095739;28;20016;-32
2024/01/06 03:38:31;;;;;;;8.45;5.47;;;;;;;;;;5095641;28;20016;-31
2024/01/06 03:40:56;;;;;;;11.00;5.70;;;;;;;;;;5077521;28;20023;-31
2024/01/06 03:43:22;;;;;;;11.47;5.97;;;;;;;;;;5095615;28;20016;-31
2024/01/06 03:45:47;;;;;;;13.07;5.57;;;;;;;;;;5095918;28;20624;-32
2024/01/06 03:48:13;;;;;;;13.40;5.63;;;;;;;;;;5095569;28;20012;-32
2024/01/06 03:50:38;;;;;;;10.48;5.85;;;;;;;;;;5095788;28;20286;-31
2024/01/06 03:53:03;;;;;;;8.23;5.73;;;;;;;;;;5096068;28;20016;-31
2024/01/06 03:55:28;;;;;;;9.97;5.80;;;;;;;;;;5095477;28;20605;-31
2024/01/06 03:57:53;;;;;;;11.07;5.50;;;;;;;;;;5095955;28;20250;-32
2024/01/06 04:00:18;;;;;;;10.83;5.67;;;;;;;;;;5095194;28;20265;-31
2024/01/06 04:02:44;;;;;;;9.32;5.55;;;;;;;;;;5095330;28;20378;-32
2024/01/06 04:05:09;;;;;;;11.57;6.47;;;;;;;;;;5095279;28;20052;-32
2024/01/06 04:07:34;;;;;;;10.30;5.40;;;;;;;;;;5094872;28;20253;-32
2024/01/06 04:09:59;;;;;;;13.30;5.80;;;;;;;;;;5094565;28;20025;-32
2024/01/06 04:12:24;;;;;;;13.57;5.25;;;;;;;;;;5095310;28;20246;-31
2024/01/06 04:14:50;;;;;;;9.65;5.68;;;;;;;;;;5095034;28;20016;-31
2024/01/06 04:17:15;;;;;;;10.00;5.80;;;;;;;;;;5095618;28;20016;-31
2024/01/06 04:19:40;;;;;;;9.30;5.30;;;;;;;;;;5094951;28;20747;-31
2024/01/06 04:22:05;;;;;;;10.17;5.20;;;;;;;;;;5095192;28;20266;-31
2024/01/06 04:24:30;;;;;;;10.35;5.65;;;;;;;;;;5094908;28;20611;-32
2024/01/06 04:26:56;;;;;;;9.57;5.57;;;;;;;;;;5094782;28;20016;-31
2024/01/06 04:29:21;;;;;;;11.80;5.33;;;;;;;;;;5095266;28;20098;-31
2024/01/06 04:31:46;;;;;;;12.07;5.40;;;;;;;;;;5094739;28;20250;-31
2024/01/06 04:34:11;;;;;;;9.13;5.83;;;;;;;;;;5095249;28;20307;-31
2024/01/06 04:36:36;;;;;;;10.60;5.60;;;;;;;;;;5076585;28;20349;-31
2024/01/06 04:39:02;;;;;;;10.73;5.63;;;;;;;;;;5094637;28;20043;-31
2024/01/06 04:41:27;;;;;;;14.25;6.00;;;;;;;;;;5094813;28;20440;-32
2024/01/06 04:43:52;;;;;;;12.20;6.33;;;;;;;;;;5094546;28;20026;-32
2024/01/06 04:46:17;;;;;;;11.30;5.90;;;;;;;;;;5094499;28;20254;-31
2024/01/06 04:48:45;;;;;;;11.23;5.90;;;;;;;;;;5094303;28;20375;-31
2024/01/06 04:51:11;;;;;;;10.02;5.63;;;;;;;;;;5094620;28;20721;-32
2024/01/06 04:53:36;;;;;;;12.50;5.72;;;;;;;;;;5094608;28;20044;-31
2024/01/06 04:56:01;;;;;;;12.57;5.93;;;;;;;;;;5094338;28;20050;-31
2024/01/06 04:58:26;;;;;;;13.05;5.75;;;;;;;;;;5094238;28;20099;-31
2024/01/06 05:00:52;;;;;;;10.60;5.95;;;;;;;;;;5094191;28;20020;-31
2024/01/06 05:03:17;;;;;;;9.18;5.97;;;;;;;;;;5094020;28;20048;-31
2024/01/06 05:05:43;;;;;;;8.43;5.25;;;;;;;;;;5094000;28;20532;-31
2024/01/06 05:08:08;;;;;;;11.97;5.57;;;;;;;;;;5094257;28;20111;-31
2024/01/06 05:10:33;;;;;;;10.27;6.03;;;;;;;;;;5094015;28;20728;-32
2024/01/06 05:12:58;;;;;;;10.15;5.70;;;;;;;;;;5094480;28;20258;-32
2024/01/06 05:15:23;;;;;;;11.83;5.70;;;;;;;;;;5094487;28;20016;-31
2024/01/06 05:17:48;;;;;;;8.17;4.40;;;;;;;;;;5093918;28;20337;-32
2024/01/06 05:20:14;;;;;;;6.43;4.00;;;;;;;;;;5094010;28;20300;-32
2024/01/06 05:22:39;;;;;;;9.23;4.27;;;;;;;;;;5094339;28;20254;-32
2024/01/06 05:25:04;;;;;;;6.38;4.00;;;;;;;;;;5094481;28;20708;-32
2024/01/06 05:27:29;;;;;;;7.65;4.28;;;;;;;;;;5093929;28;20027;-32
2024/01/06 05:29:55;;;;;;;8.77;4.80;;;;;;;;;;5093728;28;20107;-32
2024/01/06 05:32:20;;;;;;;9.88;4.90;;;;;;;;;;5093731;28;20103;-32
2024/01/06 05:34:45;;;;;;;7.67;5.07;;;;;;;;;;5094265;28;20097;-32
2024/01/06 05:37:10;;;;;;;11.83;5.10;;;;;;;;;;5093660;28;20262;-32
2024/01/06 05:39:37;;;;;;;11.47;4.73;;;;;;;;;;5094323;28;20299;-32
2024/01/06 05:42:03;;;;;;;6.72;4.55;;;;;;;;;;5093870;28;20777;-31
2024/01/06 05:44:28;;;;;;;14.05;4.82;;;;;;;;;;5093804;28;20024;-31
2024/01/06 05:46:54;;;;;;;8.63;4.80;;;;;;;;;;5093531;28;20032;-32
2024/01/06 05:49:19;;;;;;;9.48;5.40;;;;;;;;;;5093992;28;20775;-32
2024/01/06 05:51:45;;;;;;;7.50;4.97;;;;;;;;;;5094099;28;20012;-31
2024/01/06 05:54:10;;;;;;;12.07;5.57;;;;;;;;;;5093437;28;20272;-32
2024/01/06 05:56:35;;;;;;;9.13;5.23;;;;;;;;;;5093509;28;20019;-32
2024/01/06 05:59:00;;;;;;;12.00;5.23;;;;;;;;;;5093393;28;20752;-32
2024/01/06 06:01:25;;;;;;;10.48;5.22;;;;;;;;;;5093511;28;20260;-32
2024/01/06 06:03:50;;;;;;;7.60;4.57;;;;;;;;;;5093628;28;20024;-32
2024/01/06 06:06:18;;;;;;;11.70;5.03;;;;;;;;;;5093378;28;20459;-32
2024/01/06 06:08:43;;;;;;;10.32;4.60;;;;;;;;;;5093399;28;20791;-32
2024/01/06 06:11:12;;;;;;;15.10;4.30;;;;;;;;;;5093810;28;20016;-32
2024/01/06 06:13:38;;;;;;;9.18;5.18;;;;;;;;;;5093557;28;20336;-33
2024/01/06 06:16:04;;;;;;;7.20;4.43;;;;;;;;;;5093549;28;20016;-31
2024/01/06 06:18:29;;;;;;;7.80;4.60;;;;;;;;;;5075377;28;20123;-32
2024/01/06 06:20:54;;;;;;;8.10;4.28;;;;;;;;;;5093153;28;20030;-32
2024/01/06 06:23:19;;;;;;;7.27;4.27;;;;;;;;;;5093761;28;20099;-32
2024/01/06 06:25:44;;;;;;;6.40;4.03;;;;;;;;;;5093200;28;20331;-31
2024/01/06 06:28:09;;;;;;;6.40;4.18;;;;;;;;;;5093656;28;20261;-31
2024/01/06 06:30:35;;;;;;;6.93;3.90;;;;;;;;;;5093120;28;20428;-32
2024/01/06 06:33:00;;;;;;;7.03;4.00;;;;;;;;;;5096456;28;20012;-32
2024/01/06 06:35:25;;;;;;;6.20;3.90;;;;;;;;;;5096976;28;20099;-37
2024/01/06 06:37:51;;;;;;;9.15;3.92;;;;;;;;;;5097201;28;20590;-32
2024/01/06 06:40:16;;;;;;;7.00;3.78;;;;;;;;;;5097426;28;20020;-32
2024/01/06 06:42:41;;;;;;;8.13;4.03;;;;;;;;;;5096848;28;20027;-32
2024/01/06 06:45:06;;;;;;;8.18;4.10;;;;;;;;;;5096781;28;20323;-32
2024/01/06 06:47:32;;;;;;;9.57;4.47;;;;;;;;;;5097260;28;20111;-32
2024/01/06 06:49:57;;;;;;;9.93;4.57;;;;;;;;;;5096858;28;20097;-32
2024/01/06 06:52:22;;;;;;;9.10;4.87;;;;;;;;;;5096872;28;20613;-32
2024/01/06 06:54:48;;;;;;;7.53;4.57;;;;;;;;;;5096876;28;20261;-32
2024/01/06 06:57:14;;;;;;;10.07;4.97;;;;;;;;;;5096513;28;20016;-32
2024/01/06 06:59:39;;;;;;;9.27;4.90;;;;;;;;;;5097082;28;20036;-32
2024/01/06 07:02:04;;;;;;;9.20;5.07;;;;;;;;;;5096708;28;20072;-32
2024/01/06 07:04:29;;;;;;;9.27;5.00;;;;;;;;;;5096717;28;20270;-33
2024/01/06 07:06:54;;;;;;;9.40;5.55;;;;;;;;;;5096613;28;20266;-32
2024/01/06 07:09:23;;;;;;;9.65;5.40;;;;;;;;;;5096561;28;20117;-32
2024/01/06 07:11:48;;;;;;;10.07;5.10;;;;;;;;;;5096172;28;20020;-32
2024/01/06 07:14:13;;;;;;;14.65;5.43;;;;;;;;;;5096832;28;20064;-32
2024/01/06 07:16:39;;;;;;;9.63;5.20;;;;;;;;;;5096812;28;20020;-32
2024/01/06 07:19:05;;;;;;;9.57;5.20;;;;;;;;;;5096066;28;20262;-32
2024/01/06 07:21:30;;;;;;;7.40;5.13;;;;;;;;;;5096360;28;20028;-32
2024/01/06 07:23:55;;;;;;;8.13;5.13;;;;;;;;;;5096114;28;20020;-32
2024/01/06 07:26:21;;;;;;;9.93;4.90;;;;;;;;;;5096249;28;20278;-32
2024/01/06 07:28:46;;;;;;;9.80;4.70;;;;;;;;;;5096251;28;20081;-32
2024/01/06 07:31:11;;;;;;;11.82;5.30;;;;;;;;;;5096495;28;20016;-33
2024/01/06 07:33:36;;;;;;;11.13;5.05;;;;;;;;;;5096108;28;20020;-32
2024/01/06 07:36:02;;;;;;;7.60;4.63;;;;;;;;;;5095844;28;20020;-32
2024/01/06 07:38:27;;;;;;;7.60;5.15;;;;;;;;;;5096074;28;20035;-32
2024/01/06 07:40:54;;;;;;;10.43;4.82;;;;;;;;;;5096540;28;20016;-32
2024/01/06 07:43:19;;;;;;;7.72;4.70;;;;;;;;;;5096437;28;20024;-32
2024/01/06 07:45:44;;;;;;;8.40;5.15;;;;;;;;;;5095640;28;20024;-36
2024/01/06 07:48:10;;;;;;;10.77;5.05;;;;;;;;;;5095770;28;20097;-32
2024/01/06 07:50:35;;;;;;;8.55;4.57;;;;;;;;;;5096209;28;20016;-32
2024/01/06 07:53:01;;;;;;;8.27;4.70;;;;;;;;;;5096287;28;20465;-32
2024/01/06 07:55:28;;;;;;;8.80;4.57;;;;;;;;;;5095607;28;20277;-32
2024/01/06 07:57:53;;;;;;;10.35;4.60;;;;;;;;;;5095592;28;20020;-32
2024/01/06 08:00:19;;;;;;;9.93;5.03;;;;;;;;;;5095276;28;20020;-32
2024/01/06 08:02:44;;;;;;;8.65;4.30;;;;;;;;;;5095177;28;20499;-32
2024/01/06 08:05:09;;;;;;;8.33;4.60;;;;;;;;;;5095788;28;20024;-32
2024/01/06 08:07:34;;;;;;;7.82;4.40;;;;;;;;;;5095505;28;20354;-32
2024/01/06 08:10:00;;;;;;;6.82;4.03;;;;;;;;;;5095142;28;20027;-33
2024/01/06 08:12:25;;;;;;;10.82;4.28;;;;;;;;;;5095022;28;20103;-32
2024/01/06 08:14:50;;;;;;;10.20;4.05;;;;;;;;;;5095575;28;20031;-32
2024/01/06 08:17:15;;;;;;;7.72;4.20;;;;;;;;;;5095233;28;20012;-32
2024/01/06 08:19:41;;;;;;;10.67;4.27;;;;;;;;;;5095469;28;20027;-32
2024/01/06 08:22:06;;;;;;;10.32;4.07;;;;;;;;;;5094811;28;20303;-33
2024/01/06 08:24:32;;;;;;;7.67;4.43;;;;;;;;;;5094911;28;20021;-37
2024/01/06 08:26:57;;;;;;;9.10;4.30;;;;;;;;;;5094798;28;20251;-32
2024/01/06 08:29:22;;;;;;;7.78;4.38;;;;;;;;;;5094949;28;20024;-32
2024/01/06 08:31:47;;;;;;;10.70;5.07;;;;;;;;;;5094753;28;20459;-32
2024/01/06 08:34:12;;;;;;;10.90;4.47;;;;;;;;;;5094572;28;20258;-32
2024/01/06 08:36:38;;;;;;;8.17;4.47;;;;;;;;;;5095239;28;20024;-32
2024/01/06 08:39:03;;;;;;;7.35;3.70;;;;;;;;;;5094516;28;20258;-32
2024/01/06 08:41:29;;;;;;;8.32;3.75;;;;;;;;;;5094964;28;20024;-28
2024/01/06 08:43:54;;;;;;;7.28;4.00;;;;;;;;;;5076334;28;20016;-28
2024/01/06 08:46:19;;;;;;;10.30;3.70;;;;;;;;;;5094412;28;20020;-28
2024/01/06 08:48:44;;;;;;;6.88;3.60;;;;;;;;;;5094619;28;20312;-28
2024/01/06 08:51:09;;;;;;;9.47;3.73;;;;;;;;;;5093152;28;20012;-28
2024/01/06 08:53:34;;;;;;;6.73;3.73;;;;;;;;;;5094881;28;20255;-28
2024/01/06 08:56:00;;;;;;;9.00;3.33;;;;;;;;;;5093769;28;20726;-28
2024/01/06 08:58:25;;;;;;;7.95;4.00;;;;;;;;;;5094257;28;20028;-28
2024/01/06 09:00:50;;;;;;;7.33;3.73;;;;;;;;;;5094199;28;20028;-28
2024/01/06 09:03:16;;;;;;;9.18;3.33;;;;;;;;;;5094029;28;20372;-28
2024/01/06 09:05:41;;;;;;;9.40;3.53;;;;;;;;;;5093373;28;20024;-28
2024/01/06 09:08:07;;;;;;;9.30;3.80;;;;;;;;;;5093973;28;20024;-28
2024/01/06 09:10:32;;;;;;;6.28;3.40;;;;;;;;;;5094562;28;20022;-28
2024/01/06 09:12:57;;;;;;;8.38;4.38;;;;;;;;;;5093816;28;20012;-28
2024/01/06 09:15:22;;;;;;;9.30;4.03;;;;;;;;;;5094547;28;20052;-28
2024/01/06 09:17:48;;;;;;;8.75;4.00;;;;;;;;;;5094464;28;20250;-28
2024/01/06 09:20:13;;;;;;;6.85;3.50;;;;;;;;;;5094147;28;20431;-28
2024/01/06 09:22:38;;;;;;;9.93;3.90;;;;;;;;;;5094426;28;20363;-28
2024/01/06 09:25:03;;;;;;;10.35;3.80;;;;;;;;;;5094390;28;20016;-28
2024/01/06 09:27:29;;;;;;;7.82;4.00;;;;;;;;;;5093721;28;20019;-28
2024/01/06 09:29:54;;;;;;;9.07;3.97;;;;;;;;;;5093979;28;20020;-27
2024/01/06 09:32:19;;;;;;;7.27;3.80;;;;;;;;;;5093734;28;20462;-28
2024/01/06 09:34:44;;;;;;;8.30;3.60;;;;;;;;;;5093983;28;20254;-28
2024/01/06 09:37:09;;;;;;;10.40;4.40;;;;;;;;;;5094219;28;20020;-28
2024/01/06 09:39:35;;;;;;;10.90;4.20;;;;;;;;;;5093818;28;20016;-28
2024/01/06 09:42:00;;;;;;;8.00;4.20;;;;;;;;;;5094173;28;20323;-28
2024/01/06 09:44:25;;;;;;;7.93;4.00;;;;;;;;;;5093605;28;20353;-28
2024/01/06 09:46:50;;;;;;;10.15;4.50;;;;;;;;;;5093433;28;20016;-30
2024/01/06 09:49:19;;;;;;;10.40;4.40;;;;;;;;;;5093515;28;20020;-28
2024/01/06 09:51:50;;;;;;;9.07;4.18;;;;;;;;;;5092111;28;20142;-27
2024/01/06 09:54:16;;;;;;;6.88;3.53;;;;;;;;;;5092567;28;20093;-28
2024/01/06 09:56:44;;;;;;;7.55;4.03;;;;;;;;;;5093366;28;20016;-27
2024/01/06 09:59:10;;;;;;;9.00;4.15;;;;;;;;;;5093283;28;20020;-28
2024/01/06 10:01:35;;;;;;;6.90;3.75;;;;;;;;;;5092081;28;20043;-28
2024/01/06 10:04:00;;;;;;;6.87;3.43;;;;;;;;;;5093818;28;20020;-28
2024/01/06 10:06:25;;;;;;;7.30;3.67;;;;;;;;;;5094093;28;20621;-28
2024/01/06 10:08:51;;;;;;;9.80;3.53;;;;;;;;;;5097675;28;20020;-27
2024/01/06 10:11:17;;;;;;;7.60;3.97;;;;;;;;;;5097660;28;20023;-28
2024/01/06 10:13:42;;;;;;;9.07;4.18;;;;;;;;;;5097389;28;20346;-28
2024/01/06 10:16:07;;;;;;;9.30;3.72;;;;;;;;;;5097619;28;20455;-28
2024/01/06 10:18:35;;;;;;;6.93;4.00;;;;;;;;;;5097863;28;20470;-28
2024/01/06 10:21:02;;;;;;;7.35;4.07;;;;;;;;;;5097184;28;20108;-28
2024/01/06 10:23:28;;;;;;;7.95;4.35;;;;;;;;;;5097204;28;20467;-28
2024/01/06 10:25:54;;;;;;;8.52;3.97;;;;;;;;;;5097147;28;20024;-28
2024/01/06 10:28:20;;;;;;;6.50;3.90;;;;;;;;;;5097028;28;20111;-27
2024/01/06 10:30:46;;;;;;;7.78;4.05;;;;;;;;;;5096849;28;20486;-27
2024/01/06 10:33:13;;;;;;;8.50;4.30;;;;;;;;;;5096946;28;20091;-28
2024/01/06 10:35:38;;;;;;;8.50;4.32;;;;;;;;;;5097194;28;20301;-28
2024/01/06 10:38:04;;;;;;;7.05;3.80;;;;;;;;;;5096880;28;20428;-28
2024/01/06 10:40:29;;;;;;;6.07;3.95;;;;;;;;;;5097137;28;20540;-27
2024/01/06 10:42:57;;;;;;;7.80;4.30;;;;;;;;;;5097298;28;20020;-28
2024/01/06 10:45:22;;;;;;;8.25;4.30;;;;;;;;;;5096705;28;20337;-27
2024/01/06 10:47:48;;;;;;;7.10;4.13;;;;;;;;;;5097198;28;20056;-28
2024/01/06 10:50:14;;;;;;;8.18;4.05;;;;;;;;;;5097123;28;20463;-27
2024/01/06 10:52:39;;;;;;;8.05;3.72;;;;;;;;;;5096798;28;20018;-27
2024/01/06 10:55:05;;;;;;;7.25;3.50;;;;;;;;;;5096529;28;20083;-27
2024/01/06 10:57:33;;;;;;;7.70;3.65;;;;;;;;;;5096744;28;20486;-27
2024/01/06 10:59:59;;;;;;;9.10;4.05;;;;;;;;;;5096339;28;20463;-27
2024/01/06 11:02:28;;;;;;;6.13;3.90;;;;;;;;;;5095766;28;20048;-27
2024/01/06 11:04:53;;;;;;;8.02;4.25;;;;;;;;;;5095106;28;20066;-27
2024/01/06 11:07:19;;;;;;;5.72;3.88;;;;;;;;;;5095299;28;20032;-27
2024/01/06 11:09:50;;;;;;;6.40;4.07;;;;;;;;;;5095235;28;20348;-28
2024/01/06 11:12:16;;;;;;;7.65;4.03;;;;;;;;;;5095008;28;20019;-27
2024/01/06 11:14:41;;;;;;;8.07;4.45;;;;;;;;;;5095103;28;20016;-27
2024/01/06 11:17:06;;;;;;;7.95;4.22;;;;;;;;;;5076273;28;20056;-27
2024/01/06 11:19:34;;;;;;;6.20;4.00;;;;;;;;;;5094811;28;20016;-27
2024/01/06 11:22:18;;;;;;;6.90;4.00;;;;;;;;;;5094684;28;20323;-27
2024/01/06 11:24:47;;;;;;;7.63;4.47;;;;;;;;;;5094627;28;20027;-27
2024/01/06 11:27:17;;;;;;;8.02;4.50;;;;;;;;;;5094868;28;20073;-27
2024/01/06 11:29:43;;;;;;;11.77;5.13;;;;;;;;;;5094814;28;20103;-27
2024/01/06 11:32:20;;;;;;;14.68;4.88;;;;;;;;;;5094608;28;20012;-27
2024/01/06 11:34:49;;;;;;;11.68;5.15;;;;;;;;;;5095048;28;20039;-27
2024/01/06 11:37:17;;;;;;;13.23;5.05;;;;;;;;;;5094596;28;20095;-27
2024/01/06 11:39:42;;;;;;;9.68;4.60;;;;;;;;;;5094859;28;20015;-27
2024/01/06 11:42:12;;;;;;;8.15;4.68;;;;;;;;;;5094477;28;20535;-27
2024/01/06 11:44:38;;;;;;;8.60;4.55;;;;;;;;;;5076387;28;20016;-27
2024/01/06 11:47:04;;;;;;;8.85;4.93;;;;;;;;;;5094425;28;20039;-27
2024/01/06 11:49:29;;;;;;;8.55;5.00;;;;;;;;;;5094229;28;20455;-28
2024/01/06 11:51:56;;;;;;;8.15;4.68;;;;;;;;;;5094254;28;20016;-28
2024/01/06 11:54:21;;;;;;;15.15;5.30;;;;;;;;;;5094290;28;20051;-28
2024/01/06 11:56:47;;;;;;;11.88;5.28;;;;;;;;;;5094271;28;20012;-27
2024/01/06 11:59:12;;;;;;;10.88;5.10;;;;;;;;;;5094541;28;20423;-28
2024/01/06 12:01:37;;;;;;;9.68;4.35;;;;;;;;;;5057235;28;1061579;-28
2024/01/06 12:04:04;;;;;;;11.98;4.70;;;;;;;;;;5095910;28;20402;-27
2024/01/06 12:06:30;;;;;;;12.90;4.50;;;;;;;;;;5095402;28;20046;-27
2024/01/06 12:09:03;;;;;;;9.35;4.10;;;;;;;;;;5095012;28;20103;-27
2024/01/06 12:11:28;;;;;;;;;;;;;;;;;;5095485;28;20481;-27
2024/01/06 12:13:53;;;;;;;7.80;4.00;;;;;;;;;;5094860;28;19999;-27
2024/01/06 12:16:18;;;;;;;10.13;4.57;;;;;;;;;;5077477;28;20022;-27
2024/01/06 12:18:43;;;;;;;9.27;4.20;;;;;;;;;;5095317;28;20250;-27
2024/01/06 12:21:08;;;;;;;8.75;4.90;;;;;;;;;;5095106;28;20020;-27
2024/01/06 12:23:34;;;;;;;12.13;4.82;;;;;;;;;;5076649;28;20069;-27
2024/01/06 12:26:00;;;;;;;8.38;4.40;;;;;;;;;;5095013;28;20036;-27
2024/01/06 12:28:26;;;;;;;10.38;4.90;;;;;;;;;;5094533;28;20024;-27
2024/01/06 12:30:52;;;;;;;10.60;5.60;;;;;;;;;;5094047;28;20027;-27
2024/01/06 12:33:17;;;;;;;8.13;5.50;;;;;;;;;;5092798;28;20020;-27
2024/01/06 12:35:42;;;;;;;11.15;5.57;;;;;;;;;;5093303;28;20736;-27
2024/01/06 12:38:10;;;;;;;8.90;5.18;;;;;;;;;;5094373;28;20023;-27
2024/01/06 12:40:37;;;;;;;8.38;5.25;;;;;;;;;;5094333;28;20099;-27
2024/01/06 12:43:02;;;;;;;11.23;5.22;;;;;;;;;;5091820;28;20024;-27
2024/01/06 12:45:28;;;;;;;11.32;5.68;;;;;;;;;;5091869;28;20019;-27
2024/01/06 12:47:54;;;;;;;11.68;5.80;;;;;;;;;;5092285;28;20069;-27
2024/01/06 12:50:19;;;;;;;12.32;6.07;;;;;;;;;;5092316;28;20111;-27
2024/01/06 12:52:45;;;;;;;11.68;6.25;;;;;;;;;;5092534;28;20019;-27
2024/01/06 12:55:11;;;;;;;12.35;6.60;;;;;;;;;;5092521;28;20063;-27
2024/01/06 12:57:36;;;;;;;14.23;6.60;;;;;;;;;;5093825;28;20044;-27
2024/01/06 13:00:01;;;;;;;13.20;5.63;;;;;;;;;;5094210;28;20099;-27
2024/01/06 13:02:26;;;;;;;11.15;5.47;;;;;;;;;;5093739;28;20108;-27
2024/01/06 13:04:52;;;;;;;8.77;5.47;;;;;;;;;;5094061;28;20068;-27
2024/01/06 13:07:17;;;;;;;9.82;5.10;;;;;;;;;;5094220;28;20636;-27
2024/01/06 13:09:42;;;;;;;11.85;4.88;;;;;;;;;;5094147;28;20374;-27
2024/01/06 13:12:08;;;;;;;10.18;5.28;;;;;;;;;;5093897;28;20027;-27
2024/01/06 13:14:33;;;;;;;9.38;5.50;;;;;;;;;;5093501;28;20020;-27
2024/01/06 13:16:58;;;;;;;13.38;5.80;;;;;;;;;;5093325;28;20027;-27
2024/01/06 13:19:25;;;;;;;13.07;5.80;;;;;;;;;;5093732;28;20122;-27
2024/01/06 13:21:50;;;;;;;10.68;5.68;;;;;;;;;;5094239;28;20020;-27
2024/01/06 13:24:15;;;;;;;13.90;6.20;;;;;;;;;;5093752;28;20030;-27
2024/01/06 13:26:40;;;;;;;10.03;5.30;;;;;;;;;;5093508;28;20319;-27
2024/01/06 13:29:06;;;;;;;10.77;5.25;;;;;;;;;;5093826;28;20361;-33
2024/01/06 13:31:31;;;;;;;16.33;6.15;;;;;;;;;;5093477;28;20016;-27
2024/01/06 13:33:56;;;;;;;11.88;5.75;;;;;;;;;;5093846;28;20008;-27
2024/01/06 13:36:22;;;;;;;17.08;6.00;;;;;;;;;;5093509;28;20070;-27
2024/01/06 13:38:48;;;;;;;11.65;5.93;;;;;;;;;;5093844;28;20024;-28
2024/01/06 13:41:13;;;;;;;15.02;6.60;;;;;;;;;;5093571;28;20366;-27
2024/01/06 13:43:38;;;;;;;12.35;6.18;;;;;;;;;;5093533;28;20020;-27
2024/01/06 13:46:04;;;;;;;15.50;5.83;;;;;;;;;;5093690;28;20029;-27
2024/01/06 13:48:29;;;;;;;11.82;6.05;;;;;;;;;;5093486;28;20358;-27
2024/01/06 13:50:54;;;;;;;10.37;5.23;;;;;;;;;;5093343;28;20024;-27
2024/01/06 13:53:19;;;;;;;11.70;5.53;;;;;;;;;;5093449;28;20246;-28
2024/01/06 13:55:44;;;;;;;12.75;5.72;;;;;;;;;;5093288;28;20527;-27
2024/01/06 13:58:10;;;;;;;12.48;6.05;;;;;;;;;;5093110;28;20069;-27
2024/01/06 14:00:35;;;;;;;20.20;6.13;;;;;;;;;;5093195;28;20066;-27
2024/01/06 14:03:01;;;;;;;13.43;6.07;;;;;;;;;;5093021;28;20044;-27
2024/01/06 14:05:26;;;;;;;14.20;5.78;;;;;;;;;;5093942;28;20016;-27
2024/01/06 14:07:51;;;;;;;9.88;6.20;;;;;;;;;;5075142;28;20024;-27
2024/01/06 14:10:17;;;;;;;11.88;5.97;;;;;;;;;;5093339;28;20095;-27
2024/01/06 14:12:42;;;;;;;11.40;6.35;;;;;;;;;;5093046;28;20016;-27
2024/01/06 14:15:07;;;;;;;11.70;5.68;;;;;;;;;;5093175;28;20020;-27
2024/01/06 14:17:33;;;;;;;11.15;5.25;;;;;;;;;;5092939;28;20027;-27
2024/01/06 14:19:58;;;;;;;10.60;6.15;;;;;;;;;;5093193;28;20023;-27
2024/01/06 14:22:23;;;;;;;13.00;5.50;;;;;;;;;;5074994;28;20031;-27
2024/01/06 14:24:49;;;;;;;11.77;5.50;;;;;;;;;;5093348;28;20020;-27
2024/01/06 14:27:14;;;;;;;9.90;5.15;;;;;;;;;;5093168;28;20254;-27